createdAt,value
2023-01-11T00:00:40.365Z,14.13
2023-01-11T00:03:14.511Z,15.30
2023-01-11T00:05:48.231Z,12.30
2023-01-11T00:08:22.098Z,14.10
2023-01-11T00:10:57.427Z,12.35
2023-01-11T00:13:31.558Z,11.65
2023-01-11T00:16:09.253Z,16.23
2023-01-11T00:18:43.023Z,10.77
2023-01-11T00:21:16.892Z,12.25
2023-01-11T00:23:51.173Z,10.90
2023-01-11T00:26:26.265Z,15.95
2023-01-11T00:29:00.126Z,12.20
2023-01-11T00:31:34.763Z,11.57
2023-01-11T00:34:08.288Z,15.77
2023-01-11T00:36:42.147Z,13.25
2023-01-11T00:39:15.831Z,14.23
2023-01-11T00:42:08.765Z,11.95
2023-01-11T00:44:59.599Z,16.08
2023-01-11T00:47:51.157Z,10.50
2023-01-11T00:50:25.063Z,13.30
2023-01-11T00:53:00.222Z,17.08
2023-01-11T00:55:34.167Z,10.48
2023-01-11T00:58:09.351Z,9.20
2023-01-11T01:00:42.889Z,11.45
2023-01-11T01:03:16.744Z,13.30
2023-01-11T01:05:55.586Z,13.90
2023-01-11T01:11:02.888Z,11.85
2023-01-11T01:13:55.440Z,21.77
2023-01-11T01:16:29.182Z,13.20
2023-01-11T01:19:03.056Z,11.10
2023-01-11T01:21:37.433Z,13.35
2023-01-11T01:24:11.939Z,14.35
2023-01-11T01:26:45.550Z,25.52
2023-01-11T01:29:20.734Z,14.13
2023-01-11T01:31:54.305Z,12.55
2023-01-11T01:34:28.229Z,13.07
2023-01-11T01:37:01.803Z,12.32
2023-01-11T01:39:35.683Z,18.75
2023-01-11T01:42:14.437Z,13.63
2023-01-11T01:47:38.320Z,13.73
2023-01-11T01:50:17.132Z,9.15
2023-01-11T01:52:54.523Z,14.05
2023-01-11T01:55:32.568Z,10.73
2023-01-11T01:58:10.314Z,9.50
2023-01-11T02:00:47.039Z,13.98
2023-01-11T02:03:23.753Z,10.88
2023-01-11T02:05:57.563Z,11.77
2023-01-11T02:08:37.340Z,9.55
2023-01-11T02:11:28.414Z,6.80
2023-01-11T02:14:04.783Z,14.75
2023-01-11T02:16:39.951Z,14.57
2023-01-11T02:19:25.287Z,8.00
2023-01-11T02:22:18.465Z,13.23
2023-01-11T02:25:17.719Z,11.18
2023-01-11T02:28:09.193Z,13.07
2023-01-11T02:30:54.661Z,7.90
2023-01-11T02:33:38.708Z,4.22
2023-01-11T02:36:25.943Z,8.13
2023-01-11T02:39:12.260Z,8.98
2023-01-11T02:42:10.117Z,8.00
2023-01-11T02:45:03.454Z,6.68
2023-01-11T02:47:46.197Z,5.85
2023-01-11T02:50:26.232Z,5.28
2023-01-11T02:53:04.248Z,6.70
2023-01-11T02:55:42.678Z,5.20
2023-01-11T02:58:17.870Z,10.38
2023-01-11T03:00:55.640Z,9.18
2023-01-11T03:03:29.462Z,7.45
2023-01-11T03:06:06.153Z,6.10
2023-01-11T03:09:09.137Z,7.60
2023-01-11T03:12:15.481Z,7.68
2023-01-11T03:15:00.096Z,7.00
2023-01-11T03:17:46.244Z,8.43
2023-01-11T03:20:25.179Z,3.55
2023-01-11T03:23:12.955Z,6.85
2023-01-11T03:25:57.920Z,6.57
2023-01-11T03:28:37.950Z,4.63
2023-01-11T03:31:19.506Z,3.63
2023-01-11T03:34:01.462Z,4.28
2023-01-11T03:36:39.633Z,6.35
2023-01-11T03:39:21.582Z,2.78
2023-01-11T03:41:59.235Z,6.60
2023-01-11T03:44:40.533Z,3.90
2023-01-11T03:47:16.837Z,5.40
2023-01-11T03:49:55.732Z,4.88
2023-01-11T03:52:33.860Z,1.65
2023-01-11T03:55:11.017Z,7.13
2023-01-11T03:57:51.451Z,4.43
2023-01-11T04:00:27.028Z,4.35
2023-01-11T04:03:01.848Z,8.10
2023-01-11T04:05:39.638Z,2.08
2023-01-11T04:08:13.222Z,4.80
2023-01-11T04:10:47.129Z,2.70
2023-01-11T04:13:20.921Z,4.05
2023-01-11T04:15:55.214Z,4.55
2023-01-11T04:18:28.799Z,6.43
2023-01-11T04:21:03.951Z,3.90
2023-01-11T04:23:37.800Z,3.45
2023-01-11T04:26:12.024Z,2.38
2023-01-11T04:28:46.065Z,3.78
2023-01-11T04:31:20.096Z,5.32
2023-01-11T04:33:53.889Z,3.00
2023-01-11T04:36:31.135Z,8.68
2023-01-11T04:39:05.040Z,5.05
2023-01-11T04:41:56.991Z,3.17
2023-01-11T04:44:30.704Z,4.70
2023-01-11T04:47:04.576Z,2.17
2023-01-11T04:49:38.190Z,1.90
2023-01-11T04:52:14.688Z,2.67
2023-01-11T04:54:48.838Z,2.40
2023-01-11T04:57:23.114Z,5.63
2023-01-11T04:59:56.723Z,2.40
2023-01-11T05:02:30.518Z,1.83
2023-01-11T05:05:04.435Z,2.78
2023-01-11T05:07:40.965Z,1.52
2023-01-11T05:10:14.685Z,4.10
2023-01-11T05:12:48.567Z,2.80
2023-01-11T05:15:22.209Z,3.05
2023-01-11T05:17:56.186Z,2.28
2023-01-11T05:20:29.863Z,2.22
2023-01-11T05:23:05.359Z,3.45
2023-01-11T05:25:39.245Z,4.35
2023-01-11T05:28:13.114Z,3.00
2023-01-11T05:30:52.479Z,3.40
2023-01-11T05:33:26.367Z,4.28
2023-01-11T05:36:00.951Z,4.07
2023-01-11T05:38:36.155Z,3.35
2023-01-11T05:41:14.330Z,4.07
2023-01-11T05:44:08.425Z,3.78
2023-01-11T05:46:43.509Z,4.00
2023-01-11T05:49:17.393Z,2.40
2023-01-11T05:51:51.190Z,1.58
2023-01-11T05:54:26.433Z,4.05
2023-01-11T05:57:00.355Z,3.30
2023-01-11T05:59:34.185Z,1.65
2023-01-11T06:02:08.133Z,2.55
2023-01-11T06:04:42.107Z,2.80
2023-01-11T06:07:15.681Z,1.88
2023-01-11T06:09:50.821Z,3.42
2023-01-11T06:12:24.633Z,1.77
2023-01-11T06:14:58.704Z,1.67
2023-01-11T06:17:32.363Z,1.75
2023-01-11T06:20:07.579Z,3.35
2023-01-11T06:22:41.410Z,3.20
2023-01-11T06:25:16.792Z,2.33
2023-01-11T06:27:50.472Z,1.48
2023-01-11T06:30:25.918Z,1.42
2023-01-11T06:33:05.760Z,2.78
2023-01-11T06:35:41.416Z,3.85
2023-01-11T06:38:17.577Z,2.38
2023-01-11T06:40:58.131Z,1.88
2023-01-11T06:43:33.071Z,1.90
2023-01-11T06:46:10.401Z,1.73
2023-01-11T06:48:44.762Z,2.05
2023-01-11T06:51:18.589Z,2.35
2023-01-11T06:53:52.262Z,1.27
2023-01-11T06:56:27.509Z,1.35
2023-01-11T06:59:01.113Z,1.92
2023-01-11T07:01:35.270Z,2.90
2023-01-11T07:04:09.500Z,2.33
2023-01-11T07:06:43.678Z,2.25
2023-01-11T07:09:17.372Z,6.00
2023-01-11T07:11:52.824Z,4.97
2023-01-11T07:14:26.392Z,3.20
2023-01-11T07:17:00.934Z,2.30
2023-01-11T07:19:34.837Z,2.22
2023-01-11T07:22:08.764Z,1.98
2023-01-11T07:24:42.598Z,3.20
2023-01-11T07:27:18.071Z,2.40
2023-01-11T07:29:53.423Z,1.92
2023-01-11T07:32:28.268Z,2.97
2023-01-11T07:35:02.063Z,3.53
2023-01-11T07:37:38.585Z,4.00
2023-01-11T07:40:13.725Z,3.78
2023-01-11T07:43:08.281Z,2.53
2023-01-11T07:45:46.416Z,5.80
2023-01-11T07:48:35.079Z,7.32
2023-01-11T07:51:08.826Z,3.50
2023-01-11T07:53:42.733Z,2.95
2023-01-11T07:56:16.470Z,3.15
2023-01-11T07:58:51.683Z,4.30
2023-01-11T08:01:25.743Z,3.00
2023-01-11T08:03:59.655Z,2.63
2023-01-11T08:06:33.405Z,5.90
2023-01-11T08:09:07.866Z,4.13
2023-01-11T08:11:58.855Z,4.57
2023-01-11T08:14:42.978Z,4.60
2023-01-11T08:17:17.370Z,4.10
2023-01-11T08:19:51.165Z,3.58
2023-01-11T08:22:24.849Z,5.95
2023-01-11T08:24:58.761Z,4.15
2023-01-11T08:27:32.394Z,3.90
2023-01-11T08:30:09.195Z,3.47
2023-01-11T08:32:42.852Z,4.13
2023-01-11T08:35:16.865Z,4.32
2023-01-11T08:37:50.522Z,3.00
2023-01-11T08:40:25.531Z,2.92
2023-01-11T08:42:59.608Z,2.95
2023-01-11T08:45:35.113Z,2.75
2023-01-11T08:48:08.863Z,1.92
2023-01-11T08:50:44.929Z,3.28
2023-01-11T08:53:20.691Z,2.63
2023-01-11T08:55:54.736Z,2.17
2023-01-11T08:58:28.434Z,4.60
2023-01-11T09:01:04.051Z,3.47
2023-01-11T09:03:37.673Z,4.57
2023-01-11T09:06:11.555Z,3.22
2023-01-11T09:08:45.569Z,3.28
2023-01-11T09:11:37.152Z,5.55
2023-01-11T09:14:10.651Z,5.18
2023-01-11T09:16:45.754Z,7.80
2023-01-11T09:19:19.220Z,3.80
2023-01-11T09:21:53.436Z,3.60
2023-01-11T09:24:27.142Z,7.18
2023-01-11T09:27:01.668Z,6.90
2023-01-11T09:29:37.277Z,4.32
2023-01-11T09:32:12.943Z,6.32
2023-01-11T09:34:47.298Z,5.55
2023-01-11T09:37:22.686Z,5.43
2023-01-11T09:39:58.030Z,9.13
2023-01-11T09:42:36.419Z,6.80
2023-01-11T09:45:15.909Z,4.45
2023-01-11T09:47:54.512Z,8.23
2023-01-11T09:50:31.968Z,8.85
2023-01-11T09:53:09.706Z,8.85
2023-01-11T09:55:47.075Z,4.93
2023-01-11T09:58:41.950Z,6.90
2023-01-11T10:01:24.035Z,10.93
2023-01-11T10:04:16.450Z,8.85
2023-01-11T10:07:12.975Z,10.32
2023-01-11T10:18:37.851Z,6.60
2023-01-11T10:22:13.280Z,11.27
2023-01-11T10:24:50.422Z,6.38
2023-01-11T10:27:31.134Z,13.75
2023-01-11T10:30:33.315Z,7.20
2023-01-11T10:33:24.905Z,7.15
2023-01-11T10:36:14.799Z,7.13
2023-01-11T10:39:07.906Z,7.28
2023-01-11T10:41:52.426Z,7.65
2023-01-11T10:44:34.454Z,7.80
2023-01-11T10:47:16.290Z,11.30
2023-01-11T10:49:56.168Z,10.15
2023-01-11T10:52:41.415Z,6.35
2023-01-11T10:55:21.933Z,11.98
2023-01-11T10:58:05.351Z,6.82
2023-01-11T11:00:48.500Z,9.60
2023-01-11T11:03:39.720Z,8.38
2023-01-11T11:06:22.085Z,9.15
2023-01-11T11:09:05.530Z,11.15
2023-01-11T11:11:42.599Z,18.92
2023-01-11T11:14:24.796Z,9.82
2023-01-11T11:17:10.256Z,9.95
2023-01-11T11:19:43.982Z,6.63
2023-01-11T11:22:19.977Z,8.02
2023-01-11T11:25:01.928Z,9.40
2023-01-11T11:27:42.250Z,8.43
2023-01-11T11:30:28.859Z,10.93
2023-01-11T11:33:07.080Z,7.55
2023-01-11T11:35:43.939Z,12.75
2023-01-11T11:38:23.933Z,8.50
2023-01-11T11:41:04.989Z,11.73
2023-01-11T11:43:40.063Z,8.43
2023-01-11T11:46:25.229Z,12.95
2023-01-11T11:49:13.308Z,18.08
2023-01-11T11:51:49.208Z,9.57
2023-01-11T11:54:28.047Z,11.52
2023-01-11T11:57:15.638Z,10.52
2023-01-11T11:59:51.673Z,10.77
2023-01-11T12:02:30.155Z,11.15
2023-01-11T12:07:54.724Z,7.95
2023-01-11T12:10:31.007Z,9.43
2023-01-11T12:13:28.675Z,7.68
2023-01-11T12:16:04.935Z,7.68
2023-01-11T12:18:43.436Z,9.60
2023-01-11T12:21:21.185Z,8.68
2023-01-11T12:24:10.717Z,13.32
2023-01-11T12:26:54.103Z,10.32
2023-01-11T12:29:51.569Z,11.52
2023-01-11T12:32:52.554Z,14.63
2023-01-11T12:35:41.904Z,11.52
2023-01-11T12:38:39.669Z,15.73
2023-01-11T12:41:47.798Z,11.13
2023-01-11T12:44:43.568Z,10.88
2023-01-11T12:47:39.729Z,12.60
2023-01-11T12:50:21.689Z,10.60
2023-01-11T12:53:15.539Z,12.98
2023-01-11T12:56:02.851Z,10.70
2023-01-11T12:58:44.246Z,12.98
2023-01-11T13:01:41.843Z,12.68
2023-01-11T13:04:52.193Z,8.80
2023-01-11T13:07:36.470Z,12.35
2023-01-11T13:10:22.989Z,9.48
2023-01-11T13:13:02.828Z,15.48
2023-01-11T13:15:45.187Z,9.10
2023-01-11T13:18:28.097Z,10.73
2023-01-11T13:21:13.023Z,11.80
2023-01-11T13:23:50.509Z,10.60
2023-01-11T13:26:26.502Z,14.18
2023-01-11T13:29:04.135Z,13.93
2023-01-11T13:31:38.574Z,16.63
2023-01-11T13:34:20.442Z,11.43
2023-01-11T13:36:58.441Z,13.18
2023-01-11T13:39:40.169Z,13.57
2023-01-11T13:42:18.175Z,11.88
2023-01-11T13:44:58.304Z,12.73
2023-01-11T13:47:38.433Z,12.68
2023-01-11T13:50:21.570Z,12.82
2023-01-11T13:53:03.985Z,13.27
2023-01-11T13:55:44.440Z,17.15
2023-01-11T13:58:25.466Z,12.15
2023-01-11T14:01:07.563Z,24.35
2023-01-11T14:03:47.785Z,14.55
2023-01-11T14:06:43.138Z,18.40
2023-01-11T14:09:31.200Z,17.10
2023-01-11T14:12:15.143Z,15.93
2023-01-11T14:15:11.970Z,10.55
2023-01-11T14:18:11.303Z,14.57
2023-01-11T14:20:51.596Z,21.73
2023-01-11T14:23:36.445Z,14.68
2023-01-11T14:26:34.125Z,14.52
2023-01-11T14:29:20.762Z,15.20
2023-01-11T14:32:11.074Z,13.38
2023-01-11T14:35:05.235Z,14.05
2023-01-11T14:38:07.298Z,19.52
2023-01-11T14:41:03.252Z,13.75
2023-01-11T14:44:06.150Z,15.27
2023-01-11T14:47:06.594Z,15.07
2023-01-11T14:49:58.587Z,9.48
2023-01-11T14:52:40.539Z,13.77
2023-01-11T14:55:22.000Z,12.82
2023-01-11T14:58:06.327Z,13.55
2023-01-11T15:01:11.530Z,17.50
2023-01-11T15:03:57.282Z,15.93
2023-01-11T15:06:32.637Z,13.40
2023-01-11T15:09:45.310Z,9.95
2023-01-11T15:12:20.507Z,11.90
2023-01-11T15:15:00.110Z,14.65
2023-01-11T15:17:52.325Z,14.88
2023-01-11T15:20:27.162Z,20.40
2023-01-11T15:23:02.743Z,20.17
2023-01-11T15:25:37.002Z,17.58
2023-01-11T15:28:52.371Z,14.85
2023-01-11T15:31:39.944Z,17.65
2023-01-11T15:34:41.506Z,13.82
2023-01-11T15:37:53.633Z,18.67
2023-01-11T15:40:30.064Z,16.65
2023-01-11T15:43:38.236Z,15.65
2023-01-11T15:46:55.797Z,15.97
2023-01-11T15:50:02.960Z,16.00
2023-01-11T15:53:26.402Z,21.83
2023-01-11T15:56:38.365Z,16.15
2023-01-11T15:59:59.549Z,18.02
2023-01-11T16:03:01.219Z,17.40
2023-01-11T16:05:40.886Z,13.23
2023-01-11T16:08:23.978Z,14.10
2023-01-11T16:11:09.623Z,17.52
2023-01-11T16:14:02.701Z,24.00
2023-01-11T16:16:41.336Z,17.45
2023-01-11T16:19:20.981Z,13.38
2023-01-11T16:21:58.935Z,14.93
2023-01-11T16:24:38.382Z,16.60
2023-01-11T16:27:22.220Z,11.63
2023-01-11T16:29:56.983Z,10.65
2023-01-11T16:32:33.459Z,20.27
2023-01-11T16:35:20.269Z,20.77
2023-01-11T16:37:58.226Z,21.08
2023-01-11T16:40:35.974Z,14.88
2023-01-11T16:43:19.966Z,17.85
2023-01-11T16:45:55.121Z,16.73
2023-01-11T16:48:29.848Z,16.67
2023-01-11T16:51:07.789Z,16.20
2023-01-11T16:53:47.053Z,18.00
2023-01-11T16:56:23.903Z,15.48
2023-01-11T16:59:19.150Z,14.05
2023-01-11T17:01:54.840Z,17.63
2023-01-11T17:04:30.873Z,15.27
2023-01-11T17:07:20.564Z,18.08
2023-01-11T17:09:54.582Z,13.40
2023-01-11T17:12:28.727Z,10.90
2023-01-11T17:15:14.378Z,20.25
2023-01-11T17:17:48.371Z,17.80
2023-01-11T17:20:23.820Z,15.80
2023-01-11T17:23:00.251Z,18.02
2023-01-11T17:25:44.248Z,27.08
2023-01-11T17:28:20.497Z,18.75
2023-01-11T17:30:55.263Z,22.77
2023-01-11T17:33:33.052Z,22.00
2023-01-11T17:36:08.336Z,18.40
2023-01-11T17:38:45.413Z,18.15
2023-01-11T17:41:33.967Z,20.30
2023-01-11T17:44:34.952Z,21.08
2023-01-11T17:47:13.306Z,19.75
2023-01-11T17:49:51.561Z,16.98
2023-01-11T17:52:27.519Z,26.70
2023-01-11T17:55:13.946Z,21.17
2023-01-11T17:58:11.093Z,14.85
2023-01-11T18:00:46.478Z,16.77
2023-01-11T18:03:20.237Z,26.30
2023-01-11T18:05:54.195Z,18.50
2023-01-11T18:08:27.847Z,17.55
2023-01-11T18:11:03.061Z,22.10
2023-01-11T18:13:36.729Z,19.50
2023-01-11T18:16:10.776Z,19.30
2023-01-11T18:18:47.327Z,21.17
2023-01-11T18:21:40.959Z,20.08
2023-01-11T18:24:26.341Z,19.88
2023-01-11T18:27:25.573Z,20.40
2023-01-11T18:30:02.537Z,15.90
2023-01-11T18:32:44.241Z,24.75
2023-01-11T18:35:19.330Z,19.38
2023-01-11T18:37:53.479Z,23.63
2023-01-11T18:40:27.142Z,25.42
2023-01-11T18:43:02.535Z,21.35
2023-01-11T18:45:36.270Z,21.35
2023-01-11T18:48:12.477Z,24.55
2023-01-11T18:50:46.500Z,24.75
2023-01-11T18:53:20.336Z,21.17
2023-01-11T18:55:53.972Z,19.95
2023-01-11T18:58:29.525Z,19.67
2023-01-11T19:01:05.647Z,18.60
2023-01-11T19:03:39.735Z,17.98
2023-01-11T19:06:14.026Z,20.17
2023-01-11T19:08:47.960Z,26.88
2023-01-11T19:11:23.981Z,25.13
2023-01-11T19:13:59.541Z,23.33
2023-01-11T19:16:34.025Z,20.15
2023-01-11T19:19:09.076Z,16.55
2023-01-11T19:21:42.820Z,25.60
2023-01-11T19:24:16.558Z,23.30
2023-01-11T19:26:50.913Z,27.15
2023-01-11T19:29:26.616Z,23.02
2023-01-11T19:32:00.337Z,28.85
2023-01-11T19:34:35.335Z,19.63
2023-01-11T19:37:09.350Z,17.80
2023-01-11T19:39:43.421Z,19.52
2023-01-11T19:42:17.211Z,29.13
2023-01-11T19:44:52.750Z,26.02
2023-01-11T19:47:26.471Z,17.88
2023-01-11T19:50:01.162Z,22.80
2023-01-11T19:52:35.061Z,38.92
2023-01-11T19:55:09.822Z,15.32
2023-01-11T19:57:43.417Z,23.30
2023-01-11T20:00:20.544Z,30.15
2023-01-11T20:02:54.239Z,27.67
2023-01-11T20:05:28.058Z,27.33
2023-01-11T20:08:01.865Z,22.13
2023-01-11T20:10:35.828Z,25.08
2023-01-11T20:13:09.909Z,23.20
2023-01-11T20:15:45.216Z,21.40
2023-01-11T20:18:19.145Z,23.58
2023-01-11T20:20:58.711Z,20.90
2023-01-11T20:23:32.912Z,18.88
2023-01-11T20:26:14.778Z,29.05
2023-01-11T20:28:52.117Z,33.30
2023-01-11T20:31:32.943Z,30.15
2023-01-11T20:34:08.170Z,26.15
2023-01-11T20:36:42.683Z,19.15
2023-01-11T20:39:17.581Z,30.02
2023-01-11T20:41:51.597Z,30.27
2023-01-11T20:44:27.846Z,22.38
2023-01-11T20:47:02.969Z,24.02
2023-01-11T20:49:36.612Z,20.20
2023-01-11T20:52:10.589Z,23.27
2023-01-11T20:54:44.457Z,19.75
2023-01-11T20:57:18.407Z,16.73
2023-01-11T20:59:52.234Z,19.00
2023-01-11T21:02:27.376Z,16.80
2023-01-11T21:05:04.400Z,20.70
2023-01-11T21:07:38.351Z,22.23
2023-01-11T21:10:12.921Z,34.28
2023-01-11T21:15:20.093Z,24.05
2023-01-11T21:17:55.244Z,25.02
2023-01-11T21:20:28.846Z,18.13
2023-01-11T21:23:03.305Z,23.00
2023-01-11T21:25:37.377Z,19.75
2023-01-11T21:28:11.187Z,27.17
2023-01-11T21:30:44.919Z,20.27
2023-01-11T21:33:22.267Z,23.15
2023-01-11T21:35:57.428Z,21.00
2023-01-11T21:38:32.300Z,20.10
2023-01-11T21:41:07.916Z,21.08
2023-01-11T21:43:43.005Z,20.70
2023-01-11T21:46:16.564Z,22.08
2023-01-11T21:48:52.017Z,34.42
2023-01-11T21:51:27.109Z,18.60
2023-01-11T21:54:03.857Z,28.02
2023-01-11T21:56:38.144Z,19.13
2023-01-11T21:59:11.966Z,19.92
2023-01-11T22:01:46.914Z,15.90
2023-01-11T22:04:22.801Z,16.25
2023-01-11T22:06:57.499Z,20.98
2023-01-11T22:09:32.896Z,21.13
2023-01-11T22:12:08.115Z,26.27
2023-01-11T22:14:45.541Z,20.57
2023-01-11T22:17:19.668Z,22.92
2023-01-11T22:19:55.113Z,15.32
2023-01-11T22:22:29.136Z,28.65
2023-01-11T22:25:02.981Z,18.88
2023-01-11T22:27:36.625Z,19.40
2023-01-11T22:30:11.715Z,21.55
2023-01-11T22:32:45.463Z,17.90
2023-01-11T22:35:20.734Z,22.10
2023-01-11T22:37:54.378Z,21.38
2023-01-11T22:40:28.161Z,13.23
2023-01-11T22:43:01.914Z,23.65
2023-01-11T22:45:36.065Z,28.75
2023-01-11T22:48:10.425Z,17.20
2023-01-11T22:50:45.668Z,23.05
2023-01-11T22:53:19.373Z,17.65
2023-01-11T22:55:53.179Z,23.52
2023-01-11T22:58:26.668Z,20.67
2023-01-11T23:01:11.221Z,23.17
2023-01-11T23:03:45.942Z,18.58
2023-01-11T23:06:23.917Z,18.20
2023-01-11T23:08:58.399Z,15.75
2023-01-11T23:11:54.692Z,15.70
2023-01-11T23:14:30.669Z,15.10
2023-01-11T23:17:07.186Z,15.20
2023-01-11T23:19:42.419Z,14.45
2023-01-11T23:22:17.902Z,12.63
2023-01-11T23:24:51.547Z,15.43
2023-01-11T23:27:25.364Z,20.45
2023-01-11T23:29:58.982Z,14.35
2023-01-11T23:32:32.895Z,18.92
2023-01-11T23:35:08.952Z,19.15
2023-01-11T23:37:44.126Z,13.90
2023-01-11T23:40:17.924Z,17.83
2023-01-11T23:42:50.745Z,10.75
2023-01-11T23:45:24.370Z,14.10
2023-01-11T23:47:57.176Z,13.43
2023-01-11T23:50:30.681Z,14.73
2023-01-11T23:53:05.994Z,14.65
2023-01-11T23:55:40.147Z,14.98
2023-01-11T23:58:13.939Z,16.67
